Aeroporto :
LOGIN :

Iscrizione | Disclaimer

   EN    FR    IT 

 










Sommario :    VFR   VFR Marginale   IFR   IFR Intensivo   IFR Molto Intensivo
Visibilità : 
Base nubi : 
>= 8 km
>= 3000ft
5 / 8 km
1000 / 3000 ft
1500m / 5 km
500 / 1000 ft
800 / 1500m
200 / 500 ft
< 800m
< 200 ft
Simboli :   Temporali  Nebbia  Neve Forte  Precipitazioni Forti  Vento > 20 kt
SIGMETs :   Varie  Temporali  Ghiacco  Turbolenza  Onda orograficha  Ceneri Vulcaniche






- Altitudine del aeroporto : 505 ft
- Codice IATA : SXB


LFST - Strasbourg

ULTIMO METAR :
  • 171200Z AUTO 35008KT 4800 -RA BR OVC012/// ///TCU 05/04 Q1006 TEMPO BKN010

METARs OBSOLETI :
  • 171130Z AUTO 35008KT 4000 -RA BR OVC009 05/04 Q1006 TEMPO BKN013
  • 171100Z AUTO 36009KT 5000 -DZ BR OVC007 05/04 Q1006 TEMPO BKN013
  • 171030Z AUTO 36008KT 5000 -RADZ BR BKN007 OVC054 04/04 Q1007 TEMPO BKN013
  • 171000Z AUTO 36008KT 6000 OVC007 04/04 Q1007 TEMPO 4000 -RA BKN013
  • 170930Z AUTO 35008KT 4800 BR OVC006 04/03 Q1007 TEMPO 7000 NSW BKN013

TAF TAF LFST
Valido dal 17 a 12 ore il 18 a 12 ore UTC


171100Z 1712/1812 36007KT 6000 BKN009 OVC040
BECMG 1712/1714 BKN015
TEMPO 1712/1717 4000 -RA BR BKN010
BECMG 1717/1720 19007KT
TEMPO 1717/1810 -RA BKN010



MetMap, La meteo Aeronautica in un colpo d'occhio ! - Copyright ORBIFLY Dicembre 2007 - Disclaimer

ORBIFLY MET'MAP TEAM :

Programmazione e sviluppo : Alexandra Zaïnal
Concezione e sviluppo : Baudouin d'Aumeries
Co-Programmazione e sviluppo : Marc-Olivier Méhu
Supporto tecnico e logistico : Manuel Goepfert
Aiuto per la traduzione : Arnaldo La Scala

Contatto : metmap@orbifly.com




FONTI E CREDITI :

   NOAA